Terminal Aerodrome Forecast
Issued by NWS

Home | Current Version | Previous Version | Text Only | Print | Product List | Glossary On
Versions: 1 2 3 4 5 6 7 8 9 10 11 12 13 14 15 16 17 18 19 20 21 22 23 24
398
FTUS43 KIWX 271734
TAFSBN
TAF
KSBN 271734Z 2718/2818 07004KT P6SM BKN020
     FM272000 34004KT P6SM BKN035
     FM281200 13007KT 4SM BR VCSH OVC030
     FM281500 17007KT P6SM OVC035=

USA.gov is the U.S. government's official web portal to all federal, state and local government web resources and services.